sensor_id;sensor_type;location;lat;lon;timestamp;temperature;humidity
67817;DHT22;54614;47.576;7.524;2023-11-19T00:00:05;23.40;60.20
67817;DHT22;54614;47.576;7.524;2023-11-19T00:02:36;23.40;60.20
67817;DHT22;54614;47.576;7.524;2023-11-19T00:05:03;23.40;60.20
67817;DHT22;54614;47.576;7.524;2023-11-19T00:07:29;23.40;60.20
67817;DHT22;54614;47.576;7.524;2023-11-19T00:09:54;23.40;60.10
67817;DHT22;54614;47.576;7.524;2023-11-19T00:12:20;23.40;60.30
67817;DHT22;54614;47.576;7.524;2023-11-19T00:14:46;23.40;60.30
67817;DHT22;54614;47.576;7.524;2023-11-19T00:17:12;23.40;60.40
67817;DHT22;54614;47.576;7.524;2023-11-19T00:19:37;23.40;60.30
67817;DHT22;54614;47.576;7.524;2023-11-19T00:22:03;23.40;60.30
67817;DHT22;54614;47.576;7.524;2023-11-19T00:24:29;23.40;60.20
67817;DHT22;54614;47.576;7.524;2023-11-19T00:26:56;23.40;60.10
67817;DHT22;54614;47.576;7.524;2023-11-19T00:29:22;23.40;60.40
67817;DHT22;54614;47.576;7.524;2023-11-19T00:31:47;23.40;60.40
67817;DHT22;54614;47.576;7.524;2023-11-19T00:34:13;23.40;60.20
67817;DHT22;54614;47.576;7.524;2023-11-19T00:36:39;23.40;60.30
67817;DHT22;54614;47.576;7.524;2023-11-19T00:39:05;23.30;60.30
67817;DHT22;54614;47.576;7.524;2023-11-19T00:41:31;23.40;60.30
67817;DHT22;54614;47.576;7.524;2023-11-19T00:43:57;23.30;60.30
67817;DHT22;54614;47.576;7.524;2023-11-19T00:46:23;23.30;60.40
67817;DHT22;54614;47.576;7.524;2023-11-19T00:48:48;23.30;60.30
67817;DHT22;54614;47.576;7.524;2023-11-19T00:51:14;23.30;60.30
67817;DHT22;54614;47.576;7.524;2023-11-19T00:53:40;23.30;60.40
67817;DHT22;54614;47.576;7.524;2023-11-19T00:56:06;23.30;60.30
67817;DHT22;54614;47.576;7.524;2023-11-19T00:58:32;23.30;60.30
67817;DHT22;54614;47.576;7.524;2023-11-19T01:00:58;23.40;60.30
67817;DHT22;54614;47.576;7.524;2023-11-19T01:03:24;23.30;60.30
67817;DHT22;54614;47.576;7.524;2023-11-19T01:05:49;23.30;60.40
67817;DHT22;54614;47.576;7.524;2023-11-19T01:08:17;23.30;60.40
67817;DHT22;54614;47.576;7.524;2023-11-19T01:10:43;23.20;60.40
67817;DHT22;54614;47.576;7.524;2023-11-19T01:13:09;23.30;60.40
67817;DHT22;54614;47.576;7.524;2023-11-19T01:15:35;23.30;60.30
67817;DHT22;54614;47.576;7.524;2023-11-19T01:18:01;23.30;60.50
67817;DHT22;54614;47.576;7.524;2023-11-19T01:20:30;23.20;60.30
67817;DHT22;54614;47.576;7.524;2023-11-19T01:22:56;23.30;60.20
67817;DHT22;54614;47.576;7.524;2023-11-19T01:25:21;23.30;60.30
67817;DHT22;54614;47.576;7.524;2023-11-19T01:27:47;23.30;60.10
67817;DHT22;54614;47.576;7.524;2023-11-19T01:30:13;23.30;60.30
67817;DHT22;54614;47.576;7.524;2023-11-19T01:32:39;23.30;60.20
67817;DHT22;54614;47.576;7.524;2023-11-19T01:35:06;23.30;60.20
67817;DHT22;54614;47.576;7.524;2023-11-19T01:37:33;23.30;60.10
67817;DHT22;54614;47.576;7.524;2023-11-19T01:40:00;23.30;60.40
67817;DHT22;54614;47.576;7.524;2023-11-19T01:42:28;23.20;60.30
67817;DHT22;54614;47.576;7.524;2023-11-19T01:45:00;23.20;60.30
67817;DHT22;54614;47.576;7.524;2023-11-19T01:47:30;23.20;60.30
67817;DHT22;54614;47.576;7.524;2023-11-19T01:49:57;23.20;60.20
67817;DHT22;54614;47.576;7.524;2023-11-19T01:52:23;23.20;60.30
67817;DHT22;54614;47.576;7.524;2023-11-19T01:54:52;23.20;60.20
67817;DHT22;54614;47.576;7.524;2023-11-19T01:57:20;23.20;60.30
67817;DHT22;54614;47.576;7.524;2023-11-19T01:59:49;23.20;60.30
67817;DHT22;54614;47.576;7.524;2023-11-19T02:02:17;23.20;60.10
67817;DHT22;54614;47.576;7.524;2023-11-19T02:04:47;23.20;60.30
67817;DHT22;54614;47.576;7.524;2023-11-19T02:07:15;23.20;60.30
67817;DHT22;54614;47.576;7.524;2023-11-19T02:09:43;23.20;60.40
67817;DHT22;54614;47.576;7.524;2023-11-19T02:12:10;23.20;60.30
67817;DHT22;54614;47.576;7.524;2023-11-19T02:14:39;23.20;60.30
67817;DHT22;54614;47.576;7.524;2023-11-19T02:17:05;23.20;60.70
67817;DHT22;54614;47.576;7.524;2023-11-19T02:19:30;23.20;60.30
67817;DHT22;54614;47.576;7.524;2023-11-19T02:21:56;23.20;60.20
67817;DHT22;54614;47.576;7.524;2023-11-19T02:24:22;23.20;60.30
67817;DHT22;54614;47.576;7.524;2023-11-19T02:26:53;23.20;60.40
67817;DHT22;54614;47.576;7.524;2023-11-19T02:29:31;23.20;60.30
67817;DHT22;54614;47.576;7.524;2023-11-19T02:31:57;23.20;60.30
67817;DHT22;54614;47.576;7.524;2023-11-19T02:34:23;23.20;60.30
67817;DHT22;54614;47.576;7.524;2023-11-19T02:36:48;23.20;60.30
67817;DHT22;54614;47.576;7.524;2023-11-19T02:39:15;23.20;60.30
67817;DHT22;54614;47.576;7.524;2023-11-19T02:41:47;23.20;60.20
67817;DHT22;54614;47.576;7.524;2023-11-19T02:44:16;23.20;60.20
67817;DHT22;54614;47.576;7.524;2023-11-19T02:46:42;23.20;60.10
67817;DHT22;54614;47.576;7.524;2023-11-19T02:49:08;23.20;60.20
67817;DHT22;54614;47.576;7.524;2023-11-19T02:51:33;23.20;60.30
67817;DHT22;54614;47.576;7.524;2023-11-19T02:54:00;23.20;60.20
67817;DHT22;54614;47.576;7.524;2023-11-19T02:56:29;23.20;60.30
67817;DHT22;54614;47.576;7.524;2023-11-19T02:59:00;23.20;60.30
67817;DHT22;54614;47.576;7.524;2023-11-19T03:01:33;23.20;60.30
67817;DHT22;54614;47.576;7.524;2023-11-19T03:04:01;23.10;60.20
67817;DHT22;54614;47.576;7.524;2023-11-19T03:06:27;23.20;60.20
67817;DHT22;54614;47.576;7.524;2023-11-19T03:08:54;23.10;60.20
67817;DHT22;54614;47.576;7.524;2023-11-19T03:11:21;23.10;60.30
67817;DHT22;54614;47.576;7.524;2023-11-19T03:13:47;23.10;60.20
67817;DHT22;54614;47.576;7.524;2023-11-19T03:16:13;23.10;60.30
67817;DHT22;54614;47.576;7.524;2023-11-19T03:18:39;23.10;60.30
67817;DHT22;54614;47.576;7.524;2023-11-19T03:21:08;23.10;60.30
67817;DHT22;54614;47.576;7.524;2023-11-19T03:23:34;23.10;60.30
67817;DHT22;54614;47.576;7.524;2023-11-19T03:26:01;23.10;60.30
67817;DHT22;54614;47.576;7.524;2023-11-19T03:28:31;23.10;60.30
67817;DHT22;54614;47.576;7.524;2023-11-19T03:30:57;23.10;60.40
67817;DHT22;54614;47.576;7.524;2023-11-19T03:33:23;23.10;60.60
67817;DHT22;54614;47.576;7.524;2023-11-19T03:35:48;23.10;60.50
67817;DHT22;54614;47.576;7.524;2023-11-19T03:38:14;23.10;60.90
67817;DHT22;54614;47.576;7.524;2023-11-19T03:40:40;23.10;60.90
67817;DHT22;54614;47.576;7.524;2023-11-19T03:43:06;23.10;60.90
67817;DHT22;54614;47.576;7.524;2023-11-19T03:45:32;23.10;60.90
67817;DHT22;54614;47.576;7.524;2023-11-19T03:47:57;23.00;60.90
67817;DHT22;54614;47.576;7.524;2023-11-19T03:50:23;23.10;60.80
67817;DHT22;54614;47.576;7.524;2023-11-19T03:52:49;23.10;60.80
67817;DHT22;54614;47.576;7.524;2023-11-19T03:55:15;23.10;60.80
67817;DHT22;54614;47.576;7.524;2023-11-19T03:57:41;23.10;60.70
67817;DHT22;54614;47.576;7.524;2023-11-19T04:00:07;23.10;61.10
67817;DHT22;54614;47.576;7.524;2023-11-19T04:02:39;23.00;60.90
67817;DHT22;54614;47.576;7.524;2023-11-19T04:05:05;23.00;60.70
67817;DHT22;54614;47.576;7.524;2023-11-19T04:07:32;23.10;60.80
67817;DHT22;54614;47.576;7.524;2023-11-19T04:09:58;23.10;60.70
67817;DHT22;54614;47.576;7.524;2023-11-19T04:12:25;23.00;60.80
67817;DHT22;54614;47.576;7.524;2023-11-19T04:14:51;23.10;60.70
67817;DHT22;54614;47.576;7.524;2023-11-19T04:17:17;23.10;60.70
67817;DHT22;54614;47.576;7.524;2023-11-19T04:19:44;23.00;60.80
67817;DHT22;54614;47.576;7.524;2023-11-19T04:22:10;23.00;60.80
67817;DHT22;54614;47.576;7.524;2023-11-19T04:24:36;23.00;60.80
67817;DHT22;54614;47.576;7.524;2023-11-19T04:27:02;23.10;60.80
67817;DHT22;54614;47.576;7.524;2023-11-19T04:29:30;23.00;60.80
67817;DHT22;54614;47.576;7.524;2023-11-19T04:31:56;23.00;60.90
67817;DHT22;54614;47.576;7.524;2023-11-19T04:34:22;23.00;60.90
67817;DHT22;54614;47.576;7.524;2023-11-19T04:36:48;23.00;60.90
67817;DHT22;54614;47.576;7.524;2023-11-19T04:39:14;23.00;60.90
67817;DHT22;54614;47.576;7.524;2023-11-19T04:44:20;23.00;60.90
67817;DHT22;54614;47.576;7.524;2023-11-19T04:46:46;23.00;61.00
67817;DHT22;54614;47.576;7.524;2023-11-19T04:49:13;23.00;60.90
67817;DHT22;54614;47.576;7.524;2023-11-19T04:51:43;23.00;60.80
67817;DHT22;54614;47.576;7.524;2023-11-19T04:54:12;23.00;60.80
67817;DHT22;54614;47.576;7.524;2023-11-19T04:56:38;23.00;60.80
67817;DHT22;54614;47.576;7.524;2023-11-19T04:59:04;23.00;60.90
67817;DHT22;54614;47.576;7.524;2023-11-19T05:01:31;23.00;60.80
67817;DHT22;54614;47.576;7.524;2023-11-19T05:03:57;23.00;60.80
67817;DHT22;54614;47.576;7.524;2023-11-19T05:06:30;23.00;60.90
67817;DHT22;54614;47.576;7.524;2023-11-19T05:08:59;23.00;60.80
67817;DHT22;54614;47.576;7.524;2023-11-19T05:11:33;23.00;60.80
67817;DHT22;54614;47.576;7.524;2023-11-19T05:13:59;23.00;60.90
67817;DHT22;54614;47.576;7.524;2023-11-19T05:16:25;23.00;60.90
67817;DHT22;54614;47.576;7.524;2023-11-19T05:18:51;23.00;60.90
67817;DHT22;54614;47.576;7.524;2023-11-19T05:21:17;23.00;60.90
67817;DHT22;54614;47.576;7.524;2023-11-19T05:23:43;22.90;60.90
67817;DHT22;54614;47.576;7.524;2023-11-19T05:26:09;22.90;60.90
67817;DHT22;54614;47.576;7.524;2023-11-19T05:28:38;22.90;61.00
67817;DHT22;54614;47.576;7.524;2023-11-19T05:31:05;22.90;60.90
67817;DHT22;54614;47.576;7.524;2023-11-19T05:33:31;23.00;61.00
67817;DHT22;54614;47.576;7.524;2023-11-19T05:35:57;22.90;60.90
67817;DHT22;54614;47.576;7.524;2023-11-19T05:38:23;22.90;60.90
67817;DHT22;54614;47.576;7.524;2023-11-19T05:40:48;22.90;60.90
67817;DHT22;54614;47.576;7.524;2023-11-19T05:43:15;22.90;61.00
67817;DHT22;54614;47.576;7.524;2023-11-19T05:45:42;22.90;61.00
67817;DHT22;54614;47.576;7.524;2023-11-19T05:48:08;22.90;61.00
67817;DHT22;54614;47.576;7.524;2023-11-19T05:50:35;22.90;61.00
67817;DHT22;54614;47.576;7.524;2023-11-19T05:53:00;22.90;61.00
67817;DHT22;54614;47.576;7.524;2023-11-19T05:55:26;23.00;61.00
67817;DHT22;54614;47.576;7.524;2023-11-19T05:57:53;22.90;61.70
67817;DHT22;54614;47.576;7.524;2023-11-19T06:00:19;22.90;61.00
67817;DHT22;54614;47.576;7.524;2023-11-19T06:02:46;22.90;61.00
67817;DHT22;54614;47.576;7.524;2023-11-19T06:05:12;22.90;61.00
67817;DHT22;54614;47.576;7.524;2023-11-19T06:07:37;22.90;61.10
67817;DHT22;54614;47.576;7.524;2023-11-19T06:10:05;22.90;61.70
67817;DHT22;54614;47.576;7.524;2023-11-19T06:12:33;22.90;61.00
67817;DHT22;54614;47.576;7.524;2023-11-19T06:15:04;22.90;61.00
67817;DHT22;54614;47.576;7.524;2023-11-19T06:17:31;23.10;61.10
67817;DHT22;54614;47.576;7.524;2023-11-19T06:19:57;22.90;61.00
67817;DHT22;54614;47.576;7.524;2023-11-19T06:22:22;22.90;61.30
67817;DHT22;54614;47.576;7.524;2023-11-19T06:24:48;22.90;61.40
67817;DHT22;54614;47.576;7.524;2023-11-19T06:27:14;22.80;61.30
67817;DHT22;54614;47.576;7.524;2023-11-19T06:29:40;22.90;61.20
67817;DHT22;54614;47.576;7.524;2023-11-19T06:32:06;22.90;61.20
67817;DHT22;54614;47.576;7.524;2023-11-19T06:34:34;22.80;61.20
67817;DHT22;54614;47.576;7.524;2023-11-19T06:36:59;22.90;61.10
67817;DHT22;54614;47.576;7.524;2023-11-19T06:39:25;22.90;61.30
67817;DHT22;54614;47.576;7.524;2023-11-19T06:41:52;22.80;61.40
67817;DHT22;54614;47.576;7.524;2023-11-19T06:44:17;22.80;61.40
67817;DHT22;54614;47.576;7.524;2023-11-19T06:46:43;22.80;61.30
67817;DHT22;54614;47.576;7.524;2023-11-19T06:49:09;22.90;61.40
67817;DHT22;54614;47.576;7.524;2023-11-19T06:51:35;22.80;61.30
67817;DHT22;54614;47.576;7.524;2023-11-19T06:54:00;22.90;61.20
67817;DHT22;54614;47.576;7.524;2023-11-19T06:56:27;22.80;61.10
67817;DHT22;54614;47.576;7.524;2023-11-19T06:58:53;22.80;61.20
67817;DHT22;54614;47.576;7.524;2023-11-19T07:01:19;22.80;61.70
67817;DHT22;54614;47.576;7.524;2023-11-19T07:03:46;22.70;61.70
67817;DHT22;54614;47.576;7.524;2023-11-19T07:06:12;22.80;61.70
67817;DHT22;54614;47.576;7.524;2023-11-19T07:08:39;22.80;61.70
67817;DHT22;54614;47.576;7.524;2023-11-19T07:11:06;22.80;61.60
67817;DHT22;54614;47.576;7.524;2023-11-19T07:13:32;22.80;61.70
67817;DHT22;54614;47.576;7.524;2023-11-19T07:15:58;22.80;61.80
67817;DHT22;54614;47.576;7.524;2023-11-19T07:18:23;22.80;61.80
67817;DHT22;54614;47.576;7.524;2023-11-19T07:20:50;22.80;61.90
67817;DHT22;54614;47.576;7.524;2023-11-19T07:23:16;22.80;61.90
67817;DHT22;54614;47.576;7.524;2023-11-19T07:25:44;22.80;62.00
67817;DHT22;54614;47.576;7.524;2023-11-19T07:28:12;22.90;62.20
67817;DHT22;54614;47.576;7.524;2023-11-19T07:30:38;22.90;62.20
67817;DHT22;54614;47.576;7.524;2023-11-19T07:33:05;22.90;62.30
67817;DHT22;54614;47.576;7.524;2023-11-19T07:35:31;22.90;62.40
67817;DHT22;54614;47.576;7.524;2023-11-19T07:37:58;23.00;62.60
67817;DHT22;54614;47.576;7.524;2023-11-19T07:40:24;23.00;62.70
67817;DHT22;54614;47.576;7.524;2023-11-19T07:42:50;23.00;62.60
67817;DHT22;54614;47.576;7.524;2023-11-19T07:45:16;23.10;62.70
67817;DHT22;54614;47.576;7.524;2023-11-19T07:47:43;23.10;62.80
67817;DHT22;54614;47.576;7.524;2023-11-19T07:50:11;23.20;62.70
67817;DHT22;54614;47.576;7.524;2023-11-19T07:52:39;23.20;62.80
67817;DHT22;54614;47.576;7.524;2023-11-19T07:55:05;23.20;62.80
67817;DHT22;54614;47.576;7.524;2023-11-19T07:57:31;23.20;62.80
67817;DHT22;54614;47.576;7.524;2023-11-19T07:59:57;23.30;62.90
67817;DHT22;54614;47.576;7.524;2023-11-19T08:02:23;23.30;62.90
67817;DHT22;54614;47.576;7.524;2023-11-19T08:04:50;23.30;62.90
67817;DHT22;54614;47.576;7.524;2023-11-19T08:07:18;23.30;63.00
67817;DHT22;54614;47.576;7.524;2023-11-19T08:09:44;23.30;63.10
67817;DHT22;54614;47.576;7.524;2023-11-19T08:12:10;23.40;63.10
67817;DHT22;54614;47.576;7.524;2023-11-19T08:14:36;23.40;63.20
67817;DHT22;54614;47.576;7.524;2023-11-19T08:17:04;23.40;63.10
67817;DHT22;54614;47.576;7.524;2023-11-19T08:19:30;23.40;63.30
67817;DHT22;54614;47.576;7.524;2023-11-19T08:21:56;23.40;63.60
67817;DHT22;54614;47.576;7.524;2023-11-19T08:24:22;23.50;63.40
67817;DHT22;54614;47.576;7.524;2023-11-19T08:26:48;23.50;63.40
67817;DHT22;54614;47.576;7.524;2023-11-19T08:29:13;23.50;63.40
67817;DHT22;54614;47.576;7.524;2023-11-19T08:31:39;23.50;63.40
67817;DHT22;54614;47.576;7.524;2023-11-19T08:34:06;23.50;63.30
67817;DHT22;54614;47.576;7.524;2023-11-19T08:36:35;23.50;63.40
67817;DHT22;54614;47.576;7.524;2023-11-19T08:39:00;23.60;63.40
67817;DHT22;54614;47.576;7.524;2023-11-19T08:41:27;23.50;63.30
67817;DHT22;54614;47.576;7.524;2023-11-19T08:43:52;23.50;63.40
67817;DHT22;54614;47.576;7.524;2023-11-19T08:46:18;23.50;63.80
67817;DHT22;54614;47.576;7.524;2023-11-19T08:48:44;23.50;64.00
67817;DHT22;54614;47.576;7.524;2023-11-19T08:51:11;23.50;63.80
67817;DHT22;54614;47.576;7.524;2023-11-19T08:53:38;23.50;64.00
67817;DHT22;54614;47.576;7.524;2023-11-19T08:56:04;23.50;63.90
67817;DHT22;54614;47.576;7.524;2023-11-19T08:58:30;23.50;64.10
67817;DHT22;54614;47.576;7.524;2023-11-19T09:00:56;23.50;64.20
67817;DHT22;54614;47.576;7.524;2023-11-19T09:03:23;23.40;64.20
67817;DHT22;54614;47.576;7.524;2023-11-19T09:05:49;23.50;64.30
67817;DHT22;54614;47.576;7.524;2023-11-19T09:08:15;23.50;64.30
67817;DHT22;54614;47.576;7.524;2023-11-19T09:10:40;23.40;64.40
67817;DHT22;54614;47.576;7.524;2023-11-19T09:13:06;23.40;64.70
67817;DHT22;54614;47.576;7.524;2023-11-19T09:15:32;23.40;64.50
67817;DHT22;54614;47.576;7.524;2023-11-19T09:17:57;23.40;64.60
67817;DHT22;54614;47.576;7.524;2023-11-19T09:20:23;23.50;64.70
67817;DHT22;54614;47.576;7.524;2023-11-19T09:22:49;23.40;64.70
67817;DHT22;54614;47.576;7.524;2023-11-19T09:25:15;23.40;64.80
67817;DHT22;54614;47.576;7.524;2023-11-19T09:27:43;23.50;64.70
67817;DHT22;54614;47.576;7.524;2023-11-19T09:30:09;23.40;64.70
67817;DHT22;54614;47.576;7.524;2023-11-19T09:32:35;23.40;64.70
67817;DHT22;54614;47.576;7.524;2023-11-19T09:35:03;23.50;64.90
67817;DHT22;54614;47.576;7.524;2023-11-19T09:37:29;23.40;64.70
67817;DHT22;54614;47.576;7.524;2023-11-19T09:39:55;23.50;65.30
67817;DHT22;54614;47.576;7.524;2023-11-19T09:42:23;23.60;65.10
67817;DHT22;54614;47.576;7.524;2023-11-19T09:44:49;23.50;64.60
67817;DHT22;54614;47.576;7.524;2023-11-19T09:47:17;23.50;64.60
67817;DHT22;54614;47.576;7.524;2023-11-19T09:49:45;23.50;64.60
67817;DHT22;54614;47.576;7.524;2023-11-19T09:52:11;23.50;64.80
67817;DHT22;54614;47.576;7.524;2023-11-19T09:54:37;23.60;65.10
67817;DHT22;54614;47.576;7.524;2023-11-19T09:57:04;23.60;65.00
67817;DHT22;54614;47.576;7.524;2023-11-19T09:59:33;23.60;64.90
67817;DHT22;54614;47.576;7.524;2023-11-19T10:01:59;23.70;64.90
67817;DHT22;54614;47.576;7.524;2023-11-19T10:04:25;23.70;64.80
67817;DHT22;54614;47.576;7.524;2023-11-19T10:06:55;23.70;64.70
67817;DHT22;54614;47.576;7.524;2023-11-19T10:09:21;23.70;65.20
67817;DHT22;54614;47.576;7.524;2023-11-19T10:11:47;23.70;64.90
67817;DHT22;54614;47.576;7.524;2023-11-19T10:14:15;23.70;64.80
67817;DHT22;54614;47.576;7.524;2023-11-19T10:16:41;23.70;64.90
67817;DHT22;54614;47.576;7.524;2023-11-19T10:19:08;23.70;65.20
67817;DHT22;54614;47.576;7.524;2023-11-19T10:21:45;23.60;64.90
67817;DHT22;54614;47.576;7.524;2023-11-19T10:24:11;23.70;64.80
67817;DHT22;54614;47.576;7.524;2023-11-19T10:26:37;23.70;65.00
67817;DHT22;54614;47.576;7.524;2023-11-19T10:29:03;23.60;64.90
67817;DHT22;54614;47.576;7.524;2023-11-19T10:31:29;23.60;64.90
67817;DHT22;54614;47.576;7.524;2023-11-19T10:33:55;23.60;65.00
67817;DHT22;54614;47.576;7.524;2023-11-19T10:36:21;23.60;65.00
67817;DHT22;54614;47.576;7.524;2023-11-19T10:38:53;23.60;65.00
67817;DHT22;54614;47.576;7.524;2023-11-19T10:41:30;23.60;65.10
67817;DHT22;54614;47.576;7.524;2023-11-19T10:44:00;23.50;64.90
67817;DHT22;54614;47.576;7.524;2023-11-19T10:46:39;23.50;65.00
67817;DHT22;54614;47.576;7.524;2023-11-19T10:49:06;23.50;65.00
67817;DHT22;54614;47.576;7.524;2023-11-19T10:51:36;23.50;65.40
67817;DHT22;54614;47.576;7.524;2023-11-19T10:54:05;23.50;65.50
67817;DHT22;54614;47.576;7.524;2023-11-19T10:56:33;23.60;65.50
67817;DHT22;54614;47.576;7.524;2023-11-19T10:59:00;23.50;65.50
67817;DHT22;54614;47.576;7.524;2023-11-19T11:02:06;23.50;65.50
67817;DHT22;54614;47.576;7.524;2023-11-19T11:04:26;23.50;65.60
67817;DHT22;54614;47.576;7.524;2023-11-19T11:06:58;23.50;65.70
67817;DHT22;54614;47.576;7.524;2023-11-19T11:09:29;23.60;65.70
67817;DHT22;54614;47.576;7.524;2023-11-19T11:11:56;23.50;69.30
67817;DHT22;54614;47.576;7.524;2023-11-19T11:14:24;23.50;71.40
67817;DHT22;54614;47.576;7.524;2023-11-19T11:16:53;23.40;71.00
67817;DHT22;54614;47.576;7.524;2023-11-19T11:19:22;23.40;70.40
67817;DHT22;54614;47.576;7.524;2023-11-19T11:21:52;23.40;70.20
67817;DHT22;54614;47.576;7.524;2023-11-19T11:24:53;23.40;70.00
67817;DHT22;54614;47.576;7.524;2023-11-19T11:27:57;23.40;70.00
67817;DHT22;54614;47.576;7.524;2023-11-19T11:36:25;23.50;68.90
67817;DHT22;54614;47.576;7.524;2023-11-19T11:38:53;23.60;68.40
67817;DHT22;54614;47.576;7.524;2023-11-19T11:41:22;23.60;68.20
67817;DHT22;54614;47.576;7.524;2023-11-19T11:43:54;23.60;68.00
67817;DHT22;54614;47.576;7.524;2023-11-19T11:49:07;23.60;67.60
67817;DHT22;54614;47.576;7.524;2023-11-19T11:54:09;23.70;67.20
67817;DHT22;54614;47.576;7.524;2023-11-19T11:56:39;23.80;67.40
67817;DHT22;54614;47.576;7.524;2023-11-19T11:59:20;23.70;67.30
67817;DHT22;54614;47.576;7.524;2023-11-19T12:01:58;23.80;67.20
67817;DHT22;54614;47.576;7.524;2023-11-19T12:04:28;23.80;67.30
67817;DHT22;54614;47.576;7.524;2023-11-19T12:09:42;23.80;68.20
67817;DHT22;54614;47.576;7.524;2023-11-19T12:12:18;23.80;68.00
67817;DHT22;54614;47.576;7.524;2023-11-19T12:20:04;23.90;68.80
67817;DHT22;54614;47.576;7.524;2023-11-19T12:22:36;23.90;68.60
67817;DHT22;54614;47.576;7.524;2023-11-19T12:25:05;23.90;68.50
67817;DHT22;54614;47.576;7.524;2023-11-19T12:27:32;23.90;68.90
67817;DHT22;54614;47.576;7.524;2023-11-19T12:30:02;23.90;69.00
67817;DHT22;54614;47.576;7.524;2023-11-19T12:32:40;23.90;68.70
67817;DHT22;54614;47.576;7.524;2023-11-19T12:35:08;23.90;68.90
67817;DHT22;54614;47.576;7.524;2023-11-19T12:37:47;24.00;68.80
67817;DHT22;54614;47.576;7.524;2023-11-19T12:42:45;23.90;68.10
67817;DHT22;54614;47.576;7.524;2023-11-19T12:45:12;24.00;68.20
67817;DHT22;54614;47.576;7.524;2023-11-19T12:47:39;24.00;67.60
67817;DHT22;54614;47.576;7.524;2023-11-19T12:50:07;24.00;67.60
67817;DHT22;54614;47.576;7.524;2023-11-19T12:52:37;24.10;67.50
67817;DHT22;54614;47.576;7.524;2023-11-19T12:55:26;24.10;67.20
67817;DHT22;54614;47.576;7.524;2023-11-19T12:57:53;24.10;67.10
67817;DHT22;54614;47.576;7.524;2023-11-19T13:00:24;24.00;67.10
67817;DHT22;54614;47.576;7.524;2023-11-19T13:02:56;24.00;67.20
67817;DHT22;54614;47.576;7.524;2023-11-19T13:05:30;24.00;67.30
67817;DHT22;54614;47.576;7.524;2023-11-19T13:08:05;23.90;67.20
67817;DHT22;54614;47.576;7.524;2023-11-19T13:10:34;24.00;67.00
67817;DHT22;54614;47.576;7.524;2023-11-19T13:13:16;23.90;67.00
67817;DHT22;54614;47.576;7.524;2023-11-19T13:15:42;23.90;66.70
67817;DHT22;54614;47.576;7.524;2023-11-19T13:18:10;23.90;66.90
67817;DHT22;54614;47.576;7.524;2023-11-19T13:20:37;23.90;66.90
67817;DHT22;54614;47.576;7.524;2023-11-19T13:23:04;23.80;66.90
67817;DHT22;54614;47.576;7.524;2023-11-19T13:25:32;23.80;67.70
67817;DHT22;54614;47.576;7.524;2023-11-19T13:27:59;23.70;68.30
67817;DHT22;54614;47.576;7.524;2023-11-19T13:30:26;23.70;68.30
67817;DHT22;54614;47.576;7.524;2023-11-19T13:32:52;23.60;68.20
67817;DHT22;54614;47.576;7.524;2023-11-19T13:35:21;23.50;68.10
67817;DHT22;54614;47.576;7.524;2023-11-19T13:37:48;23.60;67.80
67817;DHT22;54614;47.576;7.524;2023-11-19T13:40:14;23.70;67.30
67817;DHT22;54614;47.576;7.524;2023-11-19T13:42:44;23.80;67.30
67817;DHT22;54614;47.576;7.524;2023-11-19T13:45:14;23.90;66.90
67817;DHT22;54614;47.576;7.524;2023-11-19T13:47:44;23.90;66.50
67817;DHT22;54614;47.576;7.524;2023-11-19T13:50:13;23.90;66.30
67817;DHT22;54614;47.576;7.524;2023-11-19T13:52:41;23.90;65.80
67817;DHT22;54614;47.576;7.524;2023-11-19T13:55:10;23.90;65.90
67817;DHT22;54614;47.576;7.524;2023-11-19T13:57:38;23.90;65.90
67817;DHT22;54614;47.576;7.524;2023-11-19T14:00:06;23.80;65.60
67817;DHT22;54614;47.576;7.524;2023-11-19T14:02:42;23.80;65.50
67817;DHT22;54614;47.576;7.524;2023-11-19T14:05:09;23.80;65.70
67817;DHT22;54614;47.576;7.524;2023-11-19T14:07:36;23.80;65.70
67817;DHT22;54614;47.576;7.524;2023-11-19T14:10:03;23.80;65.70
67817;DHT22;54614;47.576;7.524;2023-11-19T14:12:30;23.80;65.70
67817;DHT22;54614;47.576;7.524;2023-11-19T14:14:56;23.80;65.80
67817;DHT22;54614;47.576;7.524;2023-11-19T14:17:22;23.80;65.70
67817;DHT22;54614;47.576;7.524;2023-11-19T14:19:47;23.80;66.00
67817;DHT22;54614;47.576;7.524;2023-11-19T14:22:13;23.80;66.00
67817;DHT22;54614;47.576;7.524;2023-11-19T14:24:39;23.80;66.00
67817;DHT22;54614;47.576;7.524;2023-11-19T14:27:07;23.80;66.00
67817;DHT22;54614;47.576;7.524;2023-11-19T14:29:33;23.70;66.10
67817;DHT22;54614;47.576;7.524;2023-11-19T14:32:00;23.70;66.10
67817;DHT22;54614;47.576;7.524;2023-11-19T14:34:26;23.70;66.20
67817;DHT22;54614;47.576;7.524;2023-11-19T14:36:52;23.80;66.40
67817;DHT22;54614;47.576;7.524;2023-11-19T14:39:19;23.80;66.40
67817;DHT22;54614;47.576;7.524;2023-11-19T14:41:45;23.80;66.30
67817;DHT22;54614;47.576;7.524;2023-11-19T14:44:11;23.80;66.20
67817;DHT22;54614;47.576;7.524;2023-11-19T14:46:36;23.80;66.70
67817;DHT22;54614;47.576;7.524;2023-11-19T14:49:02;23.80;66.70
67817;DHT22;54614;47.576;7.524;2023-11-19T14:51:35;23.80;66.60
67817;DHT22;54614;47.576;7.524;2023-11-19T14:54:04;23.80;66.40
67817;DHT22;54614;47.576;7.524;2023-11-19T14:56:30;23.80;66.40
67817;DHT22;54614;47.576;7.524;2023-11-19T14:58:55;23.80;66.80
67817;DHT22;54614;47.576;7.524;2023-11-19T15:01:21;23.80;66.70
67817;DHT22;54614;47.576;7.524;2023-11-19T15:03:47;23.80;66.80
67817;DHT22;54614;47.576;7.524;2023-11-19T15:06:13;23.90;66.60
67817;DHT22;54614;47.576;7.524;2023-11-19T15:08:39;23.90;66.80
67817;DHT22;54614;47.576;7.524;2023-11-19T15:11:05;23.90;66.70
67817;DHT22;54614;47.576;7.524;2023-11-19T15:13:32;23.90;66.50
67817;DHT22;54614;47.576;7.524;2023-11-19T15:15:58;23.90;66.40
67817;DHT22;54614;47.576;7.524;2023-11-19T15:18:24;23.90;66.40
67817;DHT22;54614;47.576;7.524;2023-11-19T15:20:50;23.90;66.30
67817;DHT22;54614;47.576;7.524;2023-11-19T15:23:16;23.80;66.40
67817;DHT22;54614;47.576;7.524;2023-11-19T15:25:42;23.90;66.20
67817;DHT22;54614;47.576;7.524;2023-11-19T15:28:08;23.90;66.20
67817;DHT22;54614;47.576;7.524;2023-11-19T15:30:35;23.90;66.20
67817;DHT22;54614;47.576;7.524;2023-11-19T15:33:01;23.90;66.20
67817;DHT22;54614;47.576;7.524;2023-11-19T15:35:27;23.90;66.30
67817;DHT22;54614;47.576;7.524;2023-11-19T15:37:52;23.90;66.30
67817;DHT22;54614;47.576;7.524;2023-11-19T15:40:18;23.90;66.10
67817;DHT22;54614;47.576;7.524;2023-11-19T15:42:45;23.80;66.10
67817;DHT22;54614;47.576;7.524;2023-11-19T15:45:12;23.80;66.10
67817;DHT22;54614;47.576;7.524;2023-11-19T15:47:38;23.80;66.60
67817;DHT22;54614;47.576;7.524;2023-11-19T15:50:05;23.80;66.10
67817;DHT22;54614;47.576;7.524;2023-11-19T15:52:32;23.80;66.10
67817;DHT22;54614;47.576;7.524;2023-11-19T15:54:58;23.80;66.10